createdAt,value
2023-02-23T00:00:44.945Z,12.61
2023-02-23T00:03:12.919Z,12.52
2023-02-23T00:05:42.730Z,12.36
2023-02-23T00:08:12.319Z,12.32
2023-02-23T00:10:40.315Z,12.31
2023-02-23T00:13:08.838Z,12.33
2023-02-23T00:15:37.389Z,12.26
2023-02-23T00:18:06.201Z,12.20
2023-02-23T00:20:35.093Z,12.25
2023-02-23T00:23:04.353Z,12.17
2023-02-23T00:25:33.708Z,12.21
2023-02-23T00:28:01.591Z,12.25
2023-02-23T00:30:30.750Z,12.33
2023-02-23T00:32:58.734Z,12.52
2023-02-23T00:35:29.818Z,12.53
2023-02-23T00:37:57.578Z,12.65
2023-02-23T00:40:25.934Z,12.49
2023-02-23T00:42:55.480Z,12.60
2023-02-23T00:45:23.443Z,12.34
2023-02-23T00:47:51.706Z,12.35
2023-02-23T00:50:19.790Z,12.31
2023-02-23T00:52:47.692Z,12.30
2023-02-23T00:55:15.984Z,12.24
2023-02-23T00:57:43.994Z,12.14
2023-02-23T01:00:18.681Z,12.09
2023-02-23T01:02:46.754Z,11.89
2023-02-23T01:05:14.761Z,11.76
2023-02-23T01:07:42.874Z,11.63
2023-02-23T01:10:20.434Z,11.65
2023-02-23T01:12:50.238Z,11.63
2023-02-23T01:15:20.552Z,11.65
2023-02-23T01:17:48.716Z,11.84
2023-02-23T01:20:19.579Z,11.88
2023-02-23T01:22:49.021Z,11.81
2023-02-23T01:25:19.091Z,11.69
2023-02-23T01:27:49.132Z,11.64
2023-02-23T01:30:17.100Z,11.66
2023-02-23T01:32:46.651Z,11.69
2023-02-23T01:35:14.740Z,11.60
2023-02-23T01:37:43.634Z,11.57
2023-02-23T01:40:14.977Z,11.65
2023-02-23T01:42:43.930Z,11.69
2023-02-23T01:45:23.580Z,11.71
2023-02-23T01:47:54.684Z,11.79
2023-02-23T01:50:23.451Z,11.67
2023-02-23T01:52:55.226Z,11.76
2023-02-23T01:55:26.296Z,11.82
2023-02-23T01:57:55.412Z,11.94
2023-02-23T02:00:26.491Z,11.88
2023-02-23T02:02:56.135Z,11.99
2023-02-23T02:05:24.642Z,11.99
2023-02-23T02:07:58.869Z,12.02
2023-02-23T02:10:47.631Z,12.09
2023-02-23T02:13:21.868Z,12.06
2023-02-23T02:16:16.226Z,12.05
2023-02-23T02:18:53.838Z,12.01
2023-02-23T02:21:35.555Z,12.08
2023-02-23T02:24:22.408Z,12.06
2023-02-23T02:26:55.562Z,12.11
2023-02-23T02:29:44.460Z,11.99
2023-02-23T02:32:39.485Z,12.05
2023-02-23T02:35:22.547Z,12.09
2023-02-23T02:38:02.130Z,12.09
2023-02-23T02:40:34.276Z,12.13
2023-02-23T02:43:11.470Z,12.16
2023-02-23T02:45:54.560Z,12.17
2023-02-23T02:48:26.962Z,12.27
2023-02-23T02:50:57.049Z,12.27
2023-02-23T02:53:30.236Z,12.35
2023-02-23T02:56:00.438Z,12.42
2023-02-23T02:58:29.558Z,12.47
2023-02-23T03:01:15.230Z,12.56
2023-02-23T03:04:02.196Z,12.58
2023-02-23T03:06:50.877Z,12.57
2023-02-23T03:09:45.216Z,12.56
2023-02-23T03:12:40.020Z,12.49
2023-02-23T03:15:30.881Z,12.39
2023-02-23T03:18:19.879Z,12.28
2023-02-23T03:21:08.494Z,12.24
2023-02-23T03:23:59.601Z,12.29
2023-02-23T03:26:49.962Z,12.36
2023-02-23T03:29:40.530Z,12.16
2023-02-23T03:32:29.155Z,12.14
2023-02-23T03:35:19.832Z,12.19
2023-02-23T03:38:09.282Z,12.18
2023-02-23T03:40:56.610Z,12.23
2023-02-23T03:43:45.339Z,12.27
2023-02-23T03:46:33.262Z,12.24
2023-02-23T03:49:21.214Z,12.25
2023-02-23T03:52:10.328Z,12.31
2023-02-23T03:54:58.361Z,12.24
2023-02-23T03:57:46.867Z,12.00
2023-02-23T04:00:36.798Z,11.92
2023-02-23T04:03:24.082Z,11.85
2023-02-23T04:06:09.997Z,11.73
2023-02-23T04:08:56.833Z,11.51
2023-02-23T04:11:46.267Z,11.37
2023-02-23T04:14:17.605Z,11.35
2023-02-23T04:16:47.295Z,11.47
2023-02-23T04:19:15.543Z,11.56
2023-02-23T04:21:43.504Z,11.56
2023-02-23T04:24:11.923Z,11.64
2023-02-23T04:26:40.976Z,11.59
2023-02-23T04:29:09.084Z,11.63
2023-02-23T04:31:37.385Z,11.62
2023-02-23T04:34:06.820Z,11.52
2023-02-23T04:36:35.120Z,11.32
2023-02-23T04:39:03.041Z,11.38
2023-02-23T04:41:31.065Z,11.51
2023-02-23T04:43:58.851Z,11.51
2023-02-23T04:46:27.022Z,11.47
2023-02-23T04:48:55.023Z,11.47
2023-02-23T04:51:24.432Z,11.54
2023-02-23T04:53:52.831Z,11.55
2023-02-23T04:56:21.241Z,11.61
2023-02-23T04:58:49.348Z,11.57
2023-02-23T05:01:18.135Z,11.67
2023-02-23T05:03:46.812Z,11.64
2023-02-23T05:06:14.756Z,11.70
2023-02-23T05:08:45.456Z,11.80
2023-02-23T05:11:14.475Z,11.67
2023-02-23T05:13:43.272Z,11.70
2023-02-23T05:16:11.672Z,11.70
2023-02-23T05:18:40.378Z,11.77
2023-02-23T05:21:10.772Z,11.89
2023-02-23T05:23:39.420Z,11.92
2023-02-23T05:26:09.970Z,11.96
2023-02-23T05:28:38.962Z,12.01
2023-02-23T05:31:07.357Z,11.98
2023-02-23T05:33:42.474Z,12.09
2023-02-23T05:36:12.097Z,12.11
2023-02-23T05:38:41.202Z,12.03
2023-02-23T05:41:11.601Z,12.06
2023-02-23T05:43:40.593Z,11.97
2023-02-23T05:46:09.403Z,12.02
2023-02-23T05:48:38.546Z,11.91
2023-02-23T05:51:09.824Z,11.94
2023-02-23T05:53:37.948Z,11.94
2023-02-23T05:56:09.617Z,12.00
2023-02-23T05:58:41.604Z,12.00
2023-02-23T06:01:09.680Z,12.01
2023-02-23T06:03:37.996Z,12.08
2023-02-23T06:06:06.131Z,12.07
2023-02-23T06:08:34.206Z,12.04
2023-02-23T06:11:02.261Z,12.03
2023-02-23T06:13:31.801Z,11.99
2023-02-23T06:16:01.657Z,12.00
2023-02-23T06:18:30.235Z,12.04
2023-02-23T06:21:00.840Z,12.11
2023-02-23T06:23:28.976Z,12.10
2023-02-23T06:25:56.974Z,12.13
2023-02-23T06:28:24.817Z,12.09
2023-02-23T06:30:53.149Z,11.97
2023-02-23T06:33:22.445Z,11.89
2023-02-23T06:35:50.764Z,11.85
2023-02-23T06:38:18.738Z,11.79
2023-02-23T06:40:46.844Z,11.83
2023-02-23T06:43:15.079Z,11.88
2023-02-23T06:45:45.181Z,11.67
2023-02-23T06:48:13.374Z,11.70
2023-02-23T06:50:44.294Z,11.64
2023-02-23T06:53:13.193Z,11.65
2023-02-23T06:55:42.280Z,11.80
2023-02-23T06:58:10.377Z,11.97
2023-02-23T07:00:42.931Z,11.80
2023-02-23T07:03:11.544Z,11.70
2023-02-23T07:05:39.979Z,11.85
2023-02-23T07:08:10.327Z,12.02
2023-02-23T07:10:38.659Z,11.94
2023-02-23T07:13:06.583Z,11.78
2023-02-23T07:15:36.283Z,11.85
2023-02-23T07:18:04.918Z,11.94
2023-02-23T07:20:34.679Z,12.05
2023-02-23T07:23:03.066Z,12.06
2023-02-23T07:25:32.774Z,11.78
2023-02-23T07:28:00.352Z,11.94
2023-02-23T07:30:28.119Z,12.08
2023-02-23T07:32:55.997Z,12.04
2023-02-23T07:35:23.889Z,11.91
2023-02-23T07:37:51.549Z,12.07
2023-02-23T07:40:20.837Z,12.03
2023-02-23T07:42:50.148Z,12.34
2023-02-23T07:45:18.262Z,12.38
2023-02-23T07:47:46.711Z,12.29
2023-02-23T07:50:14.654Z,12.33
2023-02-23T07:52:50.771Z,12.51
2023-02-23T07:55:19.099Z,12.57
2023-02-23T07:57:46.808Z,12.51
2023-02-23T08:00:16.689Z,12.65
2023-02-23T08:02:44.588Z,12.94
2023-02-23T08:05:13.229Z,13.31
2023-02-23T08:07:44.074Z,13.56
2023-02-23T08:10:12.725Z,13.95
2023-02-23T08:12:40.776Z,14.15
2023-02-23T08:15:09.490Z,14.10
2023-02-23T08:17:40.315Z,13.92
2023-02-23T08:20:08.942Z,14.08
2023-02-23T08:22:48.766Z,14.39
2023-02-23T08:25:19.310Z,14.09
2023-02-23T08:27:48.894Z,13.42
2023-02-23T08:30:19.271Z,13.60
2023-02-23T08:32:48.781Z,13.36
2023-02-23T08:35:17.034Z,13.45
2023-02-23T08:37:45.626Z,13.61
2023-02-23T08:40:15.557Z,13.52
2023-02-23T08:42:44.476Z,13.48
2023-02-23T08:45:15.282Z,13.59
2023-02-23T08:47:43.457Z,13.53
2023-02-23T08:50:15.201Z,13.46
2023-02-23T08:52:43.791Z,13.67
2023-02-23T08:55:14.183Z,13.65
2023-02-23T08:57:42.245Z,13.66
2023-02-23T09:00:14.425Z,14.02
2023-02-23T09:02:44.599Z,14.20
2023-02-23T09:05:14.353Z,14.57
2023-02-23T09:07:46.405Z,14.69
2023-02-23T09:10:15.618Z,14.58
2023-02-23T09:12:44.402Z,14.15
2023-02-23T09:15:12.632Z,14.27
2023-02-23T09:17:43.026Z,14.26
2023-02-23T09:20:13.740Z,14.09
2023-02-23T09:22:48.814Z,14.53
2023-02-23T09:25:18.430Z,15.03
2023-02-23T09:27:46.250Z,15.06
2023-02-23T09:30:17.926Z,15.06
2023-02-23T09:32:46.463Z,15.56
2023-02-23T09:35:18.230Z,15.81
2023-02-23T09:37:50.216Z,15.88
2023-02-23T09:40:19.802Z,15.55
2023-02-23T09:42:57.401Z,15.88
2023-02-23T09:45:29.812Z,15.53
2023-02-23T09:48:10.752Z,15.77
2023-02-23T09:50:41.876Z,15.31
2023-02-23T09:53:16.521Z,15.45
2023-02-23T09:55:44.910Z,15.51
2023-02-23T09:58:24.183Z,15.68
2023-02-23T10:01:00.967Z,16.01
2023-02-23T10:03:32.321Z,16.84
2023-02-23T10:06:03.660Z,17.73
2023-02-23T10:08:44.092Z,18.38
2023-02-23T10:11:16.634Z,18.91
2023-02-23T10:13:51.368Z,19.26
2023-02-23T10:16:23.574Z,18.75
2023-02-23T10:18:56.820Z,18.50
2023-02-23T10:21:32.394Z,18.31
2023-02-23T10:24:04.063Z,17.96
2023-02-23T10:26:36.640Z,17.86
2023-02-23T10:29:05.874Z,16.87
2023-02-23T10:31:35.958Z,16.99
2023-02-23T10:34:07.481Z,16.60
2023-02-23T10:36:37.616Z,16.84
2023-02-23T10:39:08.596Z,17.31
2023-02-23T10:44:24.514Z,16.55
2023-02-23T10:46:55.731Z,17.21
2023-02-23T10:49:26.427Z,18.22
2023-02-23T10:51:58.490Z,19.12
2023-02-23T10:54:48.911Z,19.50
2023-02-23T10:57:25.486Z,19.97
2023-02-23T11:00:01.974Z,20.13
2023-02-23T11:02:32.352Z,19.83
2023-02-23T11:05:02.027Z,19.82
2023-02-23T11:07:32.482Z,19.81
2023-02-23T11:10:20.178Z,18.89
2023-02-23T11:12:49.998Z,17.66
2023-02-23T11:15:46.522Z,17.51
2023-02-23T11:18:22.070Z,17.75
2023-02-23T11:20:51.756Z,18.07
2023-02-23T11:23:29.455Z,18.80
2023-02-23T11:26:01.483Z,19.52
2023-02-23T11:28:33.395Z,17.29
2023-02-23T11:31:05.507Z,15.59
2023-02-23T11:33:36.153Z,15.61
2023-02-23T11:36:27.505Z,15.02
2023-02-23T11:39:03.247Z,14.14
2023-02-23T11:41:33.132Z,13.39
2023-02-23T11:44:06.212Z,14.13
2023-02-23T11:46:38.833Z,14.22
2023-02-23T11:49:08.950Z,13.88
2023-02-23T11:51:39.538Z,17.52
2023-02-23T11:54:10.891Z,21.15
2023-02-23T11:56:40.191Z,23.74
2023-02-23T11:59:20.843Z,27.41
2023-02-23T12:01:51.493Z,28.63
2023-02-23T12:04:29.755Z,25.21
2023-02-23T12:07:18.572Z,23.55
2023-02-23T12:09:50.473Z,21.04
2023-02-23T12:12:21.216Z,21.62
2023-02-23T12:14:52.992Z,23.90
2023-02-23T12:17:28.711Z,25.70
2023-02-23T12:19:59.550Z,25.29
2023-02-23T12:22:31.869Z,23.83
2023-02-23T12:25:01.359Z,22.43
2023-02-23T12:27:33.344Z,21.19
2023-02-23T12:30:08.805Z,17.45
2023-02-23T12:32:45.718Z,16.19
2023-02-23T12:35:17.105Z,15.95
2023-02-23T12:37:48.981Z,14.59
2023-02-23T12:40:20.573Z,14.11
2023-02-23T12:42:54.929Z,13.99
2023-02-23T12:45:27.608Z,13.84
2023-02-23T12:48:01.317Z,13.99
2023-02-23T12:50:33.876Z,14.39
2023-02-23T12:53:06.988Z,14.93
2023-02-23T12:55:40.459Z,14.71
2023-02-23T12:58:16.176Z,14.14
2023-02-23T13:00:52.546Z,13.99
2023-02-23T13:03:42.240Z,13.90
2023-02-23T13:06:13.452Z,14.06
2023-02-23T13:08:51.261Z,14.37
2023-02-23T13:11:26.441Z,14.95
2023-02-23T13:13:59.320Z,14.88
2023-02-23T13:16:31.115Z,14.72
2023-02-23T13:19:05.204Z,14.47
2023-02-23T13:21:36.289Z,14.69
2023-02-23T13:24:11.199Z,14.19
2023-02-23T13:26:44.585Z,14.26
2023-02-23T13:29:18.796Z,14.06
2023-02-23T13:31:49.998Z,14.20
2023-02-23T13:34:22.935Z,14.27
2023-02-23T13:36:52.076Z,14.56
2023-02-23T13:39:45.412Z,14.27
2023-02-23T13:42:22.951Z,13.88
2023-02-23T13:44:57.370Z,13.99
2023-02-23T13:47:34.278Z,14.09
2023-02-23T13:50:05.504Z,14.35
2023-02-23T13:52:36.062Z,14.13
2023-02-23T13:55:04.963Z,13.84
2023-02-23T13:57:33.954Z,14.29
2023-02-23T14:00:02.287Z,14.55
2023-02-23T14:02:42.648Z,14.75
2023-02-23T14:05:18.730Z,14.57
2023-02-23T14:07:49.954Z,15.04
2023-02-23T14:10:20.917Z,14.43
2023-02-23T14:13:04.544Z,14.23
2023-02-23T14:15:46.416Z,14.36
2023-02-23T14:18:33.255Z,14.42
2023-02-23T14:21:09.694Z,13.89
2023-02-23T14:23:53.355Z,13.90
2023-02-23T14:26:44.482Z,14.06
2023-02-23T14:29:27.505Z,14.13
2023-02-23T14:31:56.922Z,14.03
2023-02-23T14:34:43.856Z,13.96
2023-02-23T14:37:32.116Z,13.77
2023-02-23T14:40:14.078Z,13.77
2023-02-23T14:42:53.372Z,14.15
2023-02-23T14:45:27.485Z,13.93
2023-02-23T14:47:57.830Z,13.95
2023-02-23T14:50:33.489Z,13.72
2023-02-23T14:53:02.320Z,13.69
2023-02-23T14:55:31.165Z,13.49
2023-02-23T14:58:00.802Z,13.60
2023-02-23T15:00:39.994Z,13.53
2023-02-23T15:03:12.673Z,13.32
2023-02-23T15:05:45.029Z,13.42
2023-02-23T15:08:16.864Z,13.48
2023-02-23T15:10:46.485Z,13.29
2023-02-23T15:16:08.208Z,13.09
2023-02-23T15:18:39.666Z,13.06
2023-02-23T15:21:11.014Z,12.96
2023-02-23T15:23:39.657Z,12.98
2023-02-23T15:26:24.258Z,13.11
2023-02-23T15:28:53.016Z,13.79
2023-02-23T15:31:21.711Z,13.64
2023-02-23T15:33:50.840Z,13.50
2023-02-23T15:36:25.661Z,13.53
2023-02-23T15:38:55.444Z,13.44
2023-02-23T15:41:28.926Z,13.69
2023-02-23T15:44:04.193Z,13.34
2023-02-23T15:46:32.766Z,13.14
2023-02-23T15:49:04.174Z,12.99
2023-02-23T15:51:36.838Z,12.99
2023-02-23T15:54:16.438Z,12.80
2023-02-23T15:56:46.935Z,12.56
2023-02-23T15:59:18.004Z,12.43
2023-02-23T16:01:47.738Z,12.41
2023-02-23T16:04:18.846Z,12.36
2023-02-23T16:06:55.916Z,12.57
2023-02-23T16:09:28.122Z,12.42
2023-02-23T16:11:57.828Z,12.40
2023-02-23T16:14:26.169Z,12.35
2023-02-23T16:17:10.029Z,12.47
2023-02-23T16:19:42.026Z,12.45
2023-02-23T16:22:19.109Z,12.27
2023-02-23T16:24:52.644Z,12.45
2023-02-23T16:27:22.270Z,12.29
2023-02-23T16:29:56.662Z,12.37
2023-02-23T16:32:27.352Z,12.30
2023-02-23T16:34:57.885Z,12.40
2023-02-23T16:37:27.924Z,12.32
2023-02-23T16:39:56.235Z,12.17
2023-02-23T16:42:26.820Z,11.88
2023-02-23T16:44:54.553Z,12.00
2023-02-23T16:47:37.574Z,11.94
2023-02-23T16:50:20.788Z,11.80
2023-02-23T16:52:53.628Z,11.71
2023-02-23T16:55:26.361Z,11.67
2023-02-23T16:57:55.776Z,11.69
2023-02-23T17:00:29.043Z,11.84
2023-02-23T17:02:57.614Z,11.98
2023-02-23T17:05:26.041Z,11.91
2023-02-23T17:08:01.429Z,12.02
2023-02-23T17:10:31.228Z,12.30
2023-02-23T17:13:00.134Z,12.12
2023-02-23T17:15:30.190Z,12.13
2023-02-23T17:17:58.832Z,12.01
2023-02-23T17:20:27.223Z,12.11
2023-02-23T17:22:59.052Z,12.22
2023-02-23T17:25:27.367Z,12.12
2023-02-23T17:27:55.264Z,11.92
2023-02-23T17:30:23.288Z,11.90
2023-02-23T17:32:52.537Z,12.07
2023-02-23T17:35:20.721Z,12.04
2023-02-23T17:37:48.560Z,11.89
2023-02-23T17:40:19.461Z,11.82
2023-02-23T17:42:47.192Z,12.09
2023-02-23T17:45:34.217Z,12.41
2023-02-23T17:48:02.585Z,12.52
2023-02-23T17:50:31.059Z,12.17
2023-02-23T17:52:58.771Z,12.12
2023-02-23T17:55:28.013Z,11.89
2023-02-23T17:57:55.851Z,11.57
2023-02-23T18:00:25.142Z,11.79
2023-02-23T18:02:53.494Z,11.73
2023-02-23T18:05:21.790Z,11.85
2023-02-23T18:07:50.106Z,11.56
2023-02-23T18:10:18.050Z,11.42
2023-02-23T18:12:47.604Z,11.45
2023-02-23T18:15:15.652Z,11.65
2023-02-23T18:17:45.464Z,11.32
2023-02-23T18:20:15.288Z,10.90
2023-02-23T18:22:43.484Z,10.89
2023-02-23T18:25:19.544Z,10.90
2023-02-23T18:27:50.295Z,10.97
2023-02-23T18:30:18.328Z,10.91
2023-02-23T18:32:46.502Z,10.85
2023-02-23T18:35:14.893Z,10.88
2023-02-23T18:37:42.931Z,10.97
2023-02-23T18:40:21.651Z,11.12
2023-02-23T18:42:51.232Z,10.98
2023-02-23T18:45:19.364Z,10.86
2023-02-23T18:47:47.262Z,10.79
2023-02-23T18:50:19.431Z,10.73
2023-02-23T18:52:47.776Z,10.69
2023-02-23T18:55:15.955Z,10.62
2023-02-23T18:57:44.047Z,10.64
2023-02-23T19:00:15.653Z,10.72
2023-02-23T19:02:44.038Z,10.84
2023-02-23T19:05:13.172Z,10.95
2023-02-23T19:07:42.118Z,11.09
2023-02-23T19:10:12.494Z,11.33
2023-02-23T19:12:41.280Z,11.22
2023-02-23T19:15:10.239Z,10.94
2023-02-23T19:17:40.202Z,11.03
2023-02-23T19:20:12.813Z,11.13
2023-02-23T19:22:41.279Z,11.00
2023-02-23T19:25:11.745Z,11.07
2023-02-23T19:27:40.413Z,11.19
2023-02-23T19:30:10.648Z,11.29
2023-02-23T19:32:40.852Z,10.90
2023-02-23T19:35:10.998Z,11.06
2023-02-23T19:37:40.593Z,10.94
2023-02-23T19:40:09.064Z,10.83
2023-02-23T19:42:37.111Z,10.84
2023-02-23T19:45:05.156Z,10.94
2023-02-23T19:47:33.201Z,10.85
2023-02-23T19:50:02.574Z,10.90
2023-02-23T19:52:31.063Z,11.16
2023-02-23T19:54:58.700Z,10.91
2023-02-23T19:57:26.580Z,10.88
2023-02-23T19:59:54.674Z,10.98
2023-02-23T20:02:22.660Z,10.77
2023-02-23T20:04:52.105Z,10.44
2023-02-23T20:07:24.096Z,10.25
2023-02-23T20:09:52.524Z,10.14
2023-02-23T20:12:20.645Z,10.23
2023-02-23T20:14:50.416Z,10.31
2023-02-23T20:17:18.524Z,10.36
2023-02-23T20:19:46.360Z,10.31
2023-02-23T20:22:14.532Z,10.31
2023-02-23T20:24:45.999Z,10.16
2023-02-23T20:27:14.163Z,10.11
2023-02-23T20:29:41.965Z,10.09
2023-02-23T20:32:10.150Z,10.02
2023-02-23T20:34:39.422Z,10.06
2023-02-23T20:37:07.935Z,10.07
2023-02-23T20:39:35.647Z,9.98
2023-02-23T20:42:08.099Z,10.19
2023-02-23T20:44:35.951Z,10.02
2023-02-23T20:47:10.265Z,9.93
2023-02-23T20:49:38.062Z,9.99
2023-02-23T20:52:05.970Z,9.92
2023-02-23T20:54:34.645Z,9.94
2023-02-23T20:57:07.417Z,10.02
2023-02-23T20:59:37.870Z,9.98
2023-02-23T21:02:06.215Z,9.94
2023-02-23T21:04:38.310Z,9.88
2023-02-23T21:07:07.097Z,9.86
2023-02-23T21:09:35.203Z,9.79
2023-02-23T21:12:04.118Z,9.75
2023-02-23T21:14:33.858Z,9.78
2023-02-23T21:17:04.034Z,9.78
2023-02-23T21:19:32.036Z,9.79
2023-02-23T21:22:01.852Z,9.74
2023-02-23T21:24:30.450Z,9.78
2023-02-23T21:26:58.237Z,9.71
2023-02-23T21:29:26.427Z,9.73
2023-02-23T21:31:55.086Z,9.68
2023-02-23T21:34:24.596Z,9.63
2023-02-23T21:36:55.463Z,9.57
2023-02-23T21:39:28.412Z,9.52
2023-02-23T21:41:56.609Z,9.44
2023-02-23T21:44:24.531Z,9.40
2023-02-23T21:46:52.948Z,9.33
2023-02-23T21:49:22.070Z,9.27
2023-02-23T21:51:54.569Z,9.31
2023-02-23T21:54:23.732Z,9.40
2023-02-23T21:56:52.240Z,9.27
2023-02-23T21:59:20.905Z,9.24
2023-02-23T22:01:49.030Z,9.24
2023-02-23T22:04:17.378Z,9.26
2023-02-23T22:06:48.066Z,9.17
2023-02-23T22:09:18.766Z,9.26
2023-02-23T22:11:47.844Z,9.35
2023-02-23T22:14:18.248Z,9.57
2023-02-23T22:16:46.608Z,9.34
2023-02-23T22:19:14.632Z,9.27
2023-02-23T22:21:43.656Z,9.17
2023-02-23T22:24:12.580Z,9.12
2023-02-23T22:26:56.599Z,9.14
2023-02-23T22:29:25.502Z,9.17
2023-02-23T22:31:54.296Z,9.04
2023-02-23T22:34:22.335Z,9.05
2023-02-23T22:36:50.754Z,8.97
2023-02-23T22:39:19.174Z,8.97
2023-02-23T22:41:49.418Z,8.89
2023-02-23T22:44:18.284Z,8.95
2023-02-23T22:46:48.399Z,8.89
2023-02-23T22:49:22.264Z,8.91
2023-02-23T22:51:50.865Z,8.84
2023-02-23T22:54:20.692Z,8.79
2023-02-23T22:56:50.275Z,8.78
2023-02-23T22:59:20.759Z,8.78
2023-02-23T23:01:50.509Z,8.78
2023-02-23T23:04:22.115Z,8.79
2023-02-23T23:06:50.491Z,8.77
2023-02-23T23:09:21.036Z,8.80
2023-02-23T23:11:51.507Z,8.77
2023-02-23T23:14:20.454Z,8.71
2023-02-23T23:16:49.853Z,8.72
2023-02-23T23:19:18.760Z,8.67
2023-02-23T23:21:46.884Z,8.74
2023-02-23T23:24:15.757Z,8.73
2023-02-23T23:26:44.415Z,8.69
2023-02-23T23:29:14.957Z,8.69
2023-02-23T23:31:45.350Z,8.74
2023-02-23T23:34:16.713Z,8.77
2023-02-23T23:36:48.869Z,8.80
2023-02-23T23:39:17.177Z,8.79
2023-02-23T23:41:48.070Z,8.83
2023-02-23T23:44:18.202Z,8.82
2023-02-23T23:46:47.005Z,8.87
2023-02-23T23:49:16.086Z,8.83
2023-02-23T23:51:45.588Z,8.77
2023-02-23T23:54:14.632Z,8.84
2023-02-23T23:56:43.718Z,8.80
2023-02-23T23:59:13.043Z,8.86
